Time;durP1;ratioP1;P1;durP2;ratioP2;P2;SDS_P1;SDS_P2;PMS_P1;PMS_P2;Temp;Humidity;BMP_temperature;BMP_pressure;BME280_temperature;BME280_humidity;BME280_pressure;Samples;Min_cycle;Max_cycle;Signal;HPM_P1;HPM_P2
2023/09/09 00:01:29;;;;;;;52.57;48.00;;;18.70;90.60;;;;;;5033841;28;20284;-65
2023/09/09 00:03:56;;;;;;;65.90;60.40;;;18.70;90.80;;;;;;5034932;28;20775;-65
2023/09/09 00:06:22;;;;;;;65.23;59.90;;;18.70;90.70;;;;;;5034773;28;20280;-65
2023/09/09 00:08:48;;;;;;;49.57;45.37;;;18.70;90.60;;;;;;5035872;28;20292;-65
2023/09/09 00:11:13;;;;;;;48.43;44.10;;;18.60;91.10;;;;;;5038604;28;20045;-65
2023/09/09 00:13:39;;;;;;;73.47;68.20;;;18.60;91.00;;;;;;5038985;28;20433;-65
2023/09/09 00:16:05;;;;;;;46.83;42.60;;;18.60;90.90;;;;;;5044028;28;20412;-65
2023/09/09 00:18:31;;;;;;;50.37;46.07;;;18.50;91.10;;;;;;5039498;28;20175;-65
2023/09/09 00:20:56;;;;;;;57.03;52.23;;;18.50;91.10;;;;;;5027363;28;20047;-65
2023/09/09 00:23:22;;;;;;;65.47;60.20;;;18.50;91.10;;;;;;5018319;28;20063;-65
2023/09/09 00:25:48;;;;;;;49.63;45.53;;;18.40;91.60;;;;;;5038995;28;20370;-65
2023/09/09 00:28:14;;;;;;;56.93;52.00;;;18.40;91.60;;;;;;5047842;28;20045;-65
2023/09/09 00:30:41;;;;;;;54.40;50.00;;;18.40;91.80;;;;;;5042103;28;20037;-65
2023/09/09 00:33:08;;;;;;;42.70;38.93;;;18.40;91.70;;;;;;5029959;28;20290;-65
2023/09/09 00:35:34;;;;;;;52.23;47.97;;;18.30;91.60;;;;;;5043657;28;20288;-65
2023/09/09 00:38:00;;;;;;;47.50;43.30;;;18.30;91.70;;;;;;5077568;28;20284;-65
2023/09/09 00:40:26;;;;;;;58.10;53.80;;;18.30;91.70;;;;;;5048807;28;20283;-65
2023/09/09 00:42:52;;;;;;;41.87;38.07;;;18.30;91.60;;;;;;5039282;28;20303;-65
2023/09/09 00:45:17;;;;;;;42.10;38.10;;;18.30;91.60;;;;;;5042769;28;20284;-65
2023/09/09 00:47:45;;;;;;;46.50;42.50;;;18.20;91.40;;;;;;5024657;28;20110;-65
2023/09/09 00:50:13;;;;;;;56.07;51.47;;;18.20;91.60;;;;;;5041278;28;20520;-65
2023/09/09 00:52:40;;;;;;;38.17;34.63;;;18.20;91.50;;;;;;5069692;28;20284;-65
2023/09/09 00:55:11;;;;;;;38.57;35.07;;;18.20;91.70;;;;;;5044717;28;20798;-65
2023/09/09 00:57:37;;;;;;;41.20;37.53;;;18.20;91.60;;;;;;5043640;28;20307;-65
2023/09/09 01:00:09;;;;;;;44.57;40.67;;;18.20;91.60;;;;;;5037449;28;20741;-65
2023/09/09 01:02:39;;;;;;;39.77;35.97;;;18.10;91.60;;;;;;5038733;28;20037;-65
2023/09/09 01:05:06;;;;;;;57.10;52.53;;;18.10;91.90;;;;;;5043870;28;20339;-65
2023/09/09 01:07:45;;;;;;;40.90;37.03;;;18.10;91.90;;;;;;5046558;28;20695;-65
2023/09/09 01:10:11;;;;;;;40.27;36.37;;;18.10;91.70;;;;;;5041471;28;20300;-65
2023/09/09 01:12:37;;;;;;;54.33;49.73;;;18.00;91.80;;;;;;5039740;28;20290;-65
2023/09/09 01:15:07;;;;;;;44.90;40.67;;;18.00;91.80;;;;;;5029890;28;20378;-65
2023/09/09 01:17:34;;;;;;;46.73;42.83;;;18.00;91.90;;;;;;5041370;28;20045;-65
2023/09/09 01:20:06;;;;;;;47.43;43.23;;;18.00;91.90;;;;;;5048797;28;20795;-65
2023/09/09 01:22:35;;;;;;;45.47;41.70;;;17.90;92.30;;;;;;5023730;28;20283;-65
2023/09/09 01:25:04;;;;;;;38.20;34.57;;;18.00;92.50;;;;;;5042826;28;20291;-65
2023/09/09 01:27:30;;;;;;;40.67;36.87;;;17.90;92.50;;;;;;5046027;28;20303;-65
2023/09/09 01:29:55;;;;;;;40.50;36.70;;;17.90;92.40;;;;;;5022525;28;20779;-65
2023/09/09 01:32:21;;;;;;;40.13;36.47;;;17.90;92.40;;;;;;5033384;28;20037;-65
2023/09/09 01:34:47;;;;;;;38.93;35.10;;;17.90;92.60;;;;;;5043065;28;20038;-65
2023/09/09 01:37:12;;;;;;;50.47;46.23;;;17.90;92.60;;;;;;5043340;28;20037;-65
2023/09/09 01:39:38;;;;;;;43.00;38.93;;;17.90;92.70;;;;;;5044444;28;20045;-65
2023/09/09 01:42:04;;;;;;;55.37;51.00;;;17.90;92.70;;;;;;5043422;28;20053;-65
2023/09/09 01:44:30;;;;;;;69.83;64.83;;;17.90;92.70;;;;;;5048994;28;20056;-65
2023/09/09 01:46:55;;;;;;;41.63;38.03;;;17.90;92.80;;;;;;5043385;28;20307;-65
2023/09/09 01:49:21;;;;;;;37.10;33.87;;;17.80;92.80;;;;;;5043133;28;20041;-65
2023/09/09 01:51:47;;;;;;;40.70;37.13;;;17.80;93.00;;;;;;5031476;28;20422;-65
2023/09/09 01:54:12;;;;;;;38.97;35.43;;;17.80;93.00;;;;;;5019922;28;20040;-65
2023/09/09 01:56:38;;;;;;;36.80;33.30;;;17.80;93.10;;;;;;5047729;28;20123;-65
2023/09/09 01:59:03;;;;;;;38.90;35.30;;;17.80;93.10;;;;;;5023388;28;20395;-65
2023/09/09 02:01:29;;;;;;;32.83;29.77;;;17.80;93.10;;;;;;5033416;28;20037;-66
2023/09/09 02:03:55;;;;;;;37.90;34.60;;;17.80;93.10;;;;;;5034876;28;20045;-66
2023/09/09 02:06:21;;;;;;;31.17;28.37;;;17.80;93.30;;;;;;5044387;28;20405;-66
2023/09/09 02:08:46;;;;;;;43.40;39.70;;;17.80;93.40;;;;;;5044537;28;20041;-66
2023/09/09 02:11:12;;;;;;;35.17;31.87;;;17.80;93.30;;;;;;5027824;28;20091;-66
2023/09/09 02:13:38;;;;;;;61.30;56.53;;;17.70;93.30;;;;;;5044400;28;20136;-66
2023/09/09 02:16:07;;;;;;;59.60;55.13;;;17.70;93.30;;;;;;5045711;28;20126;-66
2023/09/09 02:18:37;;;;;;;63.60;58.83;;;17.70;94.00;;;;;;5036972;28;20461;-66
2023/09/09 02:21:05;;;;;;;62.67;58.43;;;17.60;94.40;;;;;;5045056;28;20284;-66
2023/09/09 02:23:31;;;;;;;47.53;44.07;;;17.60;94.20;;;;;;5051911;28;20290;-66
2023/09/09 02:25:57;;;;;;;34.63;32.13;;;17.50;94.30;;;;;;5048841;28;20287;-66
2023/09/09 02:28:23;;;;;;;29.73;27.57;;;17.40;94.90;;;;;;5050070;28;20319;-66
2023/09/09 02:30:49;;;;;;;46.13;42.93;;;17.30;94.60;;;;;;5047191;28;20405;-66
2023/09/09 02:33:15;;;;;;;51.90;48.57;;;17.20;94.30;;;;;;5043382;28;20275;-66
2023/09/09 02:35:44;;;;;;;31.87;29.33;;;17.20;94.30;;;;;;5043466;28;20040;-66
2023/09/09 02:38:10;;;;;;;24.93;22.93;;;17.10;94.60;;;;;;5046542;28;20295;-66
2023/09/09 02:40:36;;;;;;;39.70;37.07;;;17.00;94.60;;;;;;5048629;28;20288;-66
2023/09/09 02:43:02;;;;;;;32.60;30.37;;;17.00;94.50;;;;;;5034068;28;20076;-66
2023/09/09 02:45:28;;;;;;;25.17;23.33;;;16.90;94.70;;;;;;5048143;28;20295;-66
2023/09/09 02:47:53;;;;;;;25.57;23.80;;;16.90;94.60;;;;;;5050392;28;20303;-66
2023/09/09 02:50:19;;;;;;;36.77;34.37;;;16.90;94.70;;;;;;5042863;28;20073;-66
2023/09/09 02:52:48;;;;;;;23.60;21.80;;;16.80;94.60;;;;;;5037476;28;20041;-66
2023/09/09 02:55:14;;;;;;;25.77;23.80;;;16.80;94.70;;;;;;5034688;28;20128;-66
2023/09/09 02:57:40;;;;;;;36.37;33.80;;;16.80;94.80;;;;;;5024753;28;20450;-66
2023/09/09 03:00:08;;;;;;;23.03;21.27;;;16.80;94.80;;;;;;5052149;28;20094;-66
2023/09/09 03:02:35;;;;;;;23.33;21.53;;;16.80;94.60;;;;;;5046065;28;20068;-66
2023/09/09 03:05:00;;;;;;;42.50;39.93;;;16.80;94.60;;;;;;5043495;28;20366;-66
2023/09/09 03:07:26;;;;;;;40.23;37.50;;;16.80;94.50;;;;;;5042726;28;20430;-66
2023/09/09 03:09:52;;;;;;;27.70;25.60;;;16.80;94.80;;;;;;5045831;28;20052;-66
2023/09/09 03:12:20;;;;;;;26.10;24.10;;;16.80;95.00;;;;;;5042300;28;20037;-66
2023/09/09 03:14:49;;;;;;;48.97;45.90;;;16.70;94.80;;;;;;5045193;28;20044;-66
2023/09/09 03:17:16;;;;;;;54.87;51.43;;;16.70;94.80;;;;;;5050218;28;20283;-66
2023/09/09 03:19:42;;;;;;;45.40;42.47;;;16.70;94.90;;;;;;5049270;28;20325;-66
2023/09/09 03:22:07;;;;;;;55.20;51.70;;;16.70;95.20;;;;;;5023280;28;20284;-66
2023/09/09 03:24:33;;;;;;;55.50;52.00;;;16.60;95.40;;;;;;5055839;28;20045;-66
2023/09/09 03:26:58;;;;;;;45.87;42.93;;;16.60;95.50;;;;;;5041713;28;20050;-66
2023/09/09 03:29:24;;;;;;;63.47;59.57;;;16.50;95.50;;;;;;5049367;28;20047;-66
2023/09/09 03:31:50;;;;;;;60.00;55.40;;;16.50;95.40;;;;;;5026395;28;20048;-66
2023/09/09 03:34:16;;;;;;;39.10;36.00;;;16.50;95.80;;;;;;5035162;28;20049;-66
2023/09/09 03:36:42;;;;;;;40.70;37.80;;;16.40;95.80;;;;;;5048734;28;20128;-66
2023/09/09 03:39:08;;;;;;;51.60;47.80;;;16.40;95.80;;;;;;5028790;28;20120;-66
2023/09/09 03:41:39;;;;;;;42.67;39.63;;;16.30;95.70;;;;;;5031956;28;20288;-66
2023/09/09 03:44:05;;;;;;;67.77;63.27;;;16.30;96.00;;;;;;5044624;28;20378;-66
2023/09/09 03:46:30;;;;;;;58.07;54.20;;;16.30;96.10;;;;;;5037134;28;20363;-66
2023/09/09 03:48:56;;;;;;;55.33;51.47;;;16.20;96.30;;;;;;5042489;28;20051;-66
2023/09/09 03:51:22;;;;;;;49.00;45.63;;;16.20;96.20;;;;;;5030512;28;20456;-66
2023/09/09 03:53:48;;;;;;;69.53;64.83;;;16.20;96.20;;;;;;5043589;28;20413;-66
2023/09/09 03:56:15;;;;;;;43.87;40.57;;;16.20;96.30;;;;;;5046408;28;20049;-66
2023/09/09 03:58:41;;;;;;;61.33;56.87;;;16.10;96.40;;;;;;5039570;28;20068;-66
2023/09/09 04:01:12;;;;;;;70.47;65.83;;;16.10;96.40;;;;;;5025468;28;20280;-66
2023/09/09 04:03:38;;;;;;;49.17;45.43;;;16.10;96.40;;;;;;5038340;28;20048;-66
2023/09/09 04:06:06;;;;;;;34.47;31.47;;;16.10;96.50;;;;;;5044713;28;20326;-66
2023/09/09 04:08:37;;;;;;;48.93;45.00;;;16.10;96.40;;;;;;5048616;28;20307;-66
2023/09/09 04:11:03;;;;;;;49.97;45.77;;;16.10;96.50;;;;;;5050790;28;20319;-66
2023/09/09 04:13:29;;;;;;;46.13;42.00;;;16.10;96.70;;;;;;5026736;28;20298;-66
2023/09/09 04:15:56;;;;;;;46.80;42.70;;;16.10;96.70;;;;;;5046666;28;20280;-66
2023/09/09 04:18:23;;;;;;;47.13;42.93;;;16.10;96.70;;;;;;5044015;28;20116;-66
2023/09/09 04:20:49;;;;;;;48.77;44.57;;;16.10;96.70;;;;;;5040078;28;20850;-66
2023/09/09 04:23:17;;;;;;;60.33;55.63;;;16.10;96.70;;;;;;5047815;28;20321;-66
2023/09/09 04:25:46;;;;;;;59.57;54.97;;;16.10;96.70;;;;;;5046847;28;20052;-66
2023/09/09 04:28:13;;;;;;;55.10;50.47;;;16.10;96.60;;;;;;5046729;28;20303;-66
2023/09/09 04:30:39;;;;;;;45.40;41.50;;;16.10;96.50;;;;;;5031892;28;20298;-66
2023/09/09 04:33:11;;;;;;;79.13;73.30;;;16.10;96.50;;;;;;5047670;28;20283;-66
2023/09/09 04:35:41;;;;;;;54.03;49.37;;;16.10;96.50;;;;;;5040488;28;20609;-66
2023/09/09 04:38:08;;;;;;;72.07;66.60;;;16.10;96.60;;;;;;5037348;28;20277;-66
2023/09/09 04:40:37;;;;;;;47.67;43.50;;;16.10;96.80;;;;;;5038346;28;20359;-66
2023/09/09 04:43:03;;;;;;;49.97;45.77;;;16.10;96.80;;;;;;5025005;28;20282;-66
2023/09/09 04:45:29;;;;;;;40.83;37.07;;;16.10;96.90;;;;;;5044449;28;20799;-66
2023/09/09 04:47:55;;;;;;;46.80;42.77;;;16.00;96.80;;;;;;5047674;28;20190;-66
2023/09/09 04:50:20;;;;;;;71.97;66.43;;;16.00;96.70;;;;;;5044878;28;20065;-66
2023/09/09 04:52:47;;;;;;;72.90;67.43;;;16.00;96.90;;;;;;5030615;28;20484;-66
2023/09/09 04:55:13;;;;;;;82.73;76.77;;;16.00;96.90;;;;;;5022920;28;20048;-66
2023/09/09 04:57:40;;;;;;;63.90;58.57;;;15.90;96.80;;;;;;5023225;28;20652;-66
2023/09/09 05:00:10;;;;;;;75.33;69.63;;;15.90;97.10;;;;;;5038940;28;20299;-66
2023/09/09 05:02:38;;;;;;;52.57;48.03;;;15.90;97.10;;;;;;5016842;28;20656;-66
2023/09/09 05:05:05;;;;;;;43.47;39.63;;;15.90;97.10;;;;;;5028794;28;20353;-66
2023/09/09 05:07:35;;;;;;;42.33;38.60;;;15.90;97.10;;;;;;5022945;28;20307;-66
2023/09/09 05:10:04;;;;;;;61.87;57.43;;;15.80;97.10;;;;;;5040841;28;20345;-66
2023/09/09 05:12:33;;;;;;;53.93;49.47;;;15.80;97.20;;;;;;5026459;28;20329;-66
2023/09/09 05:14:59;;;;;;;57.23;52.70;;;15.90;97.40;;;;;;5049204;28;20367;-66
2023/09/09 05:17:26;;;;;;;57.10;52.87;;;15.80;97.80;;;;;;5049203;28;20866;-66
2023/09/09 05:19:52;;;;;;;54.17;49.90;;;15.80;97.80;;;;;;5044248;28;20056;-66
2023/09/09 05:22:17;;;;;;;48.23;44.87;;;15.80;98.00;;;;;;5048799;28;20390;-66
2023/09/09 05:24:43;;;;;;;54.20;50.47;;;15.80;97.90;;;;;;5048807;28;20291;-66
2023/09/09 05:27:09;;;;;;;36.77;34.10;;;15.80;97.80;;;;;;5017866;28;20120;-66
2023/09/09 05:29:34;;;;;;;47.90;44.50;;;15.70;97.70;;;;;;5025511;28;20041;-66
2023/09/09 05:32:00;;;;;;;43.90;40.73;;;15.70;97.80;;;;;;5022971;28;20033;-66
2023/09/09 05:34:26;;;;;;;58.63;53.17;;;15.60;97.80;;;;;;5048170;28;20044;-66
2023/09/09 05:36:51;;;;;;;54.13;49.30;;;15.60;97.70;;;;;;5044504;28;20401;-66
2023/09/09 05:39:17;;;;;;;51.90;47.87;;;15.60;97.80;;;;;;5026272;28;20452;-66
2023/09/09 05:41:43;;;;;;;46.67;43.07;;;15.70;98.00;;;;;;5045856;28;20049;-66
2023/09/09 05:44:08;;;;;;;39.77;36.87;;;15.70;98.20;;;;;;5042348;28;20036;-66
2023/09/09 05:46:34;;;;;;;47.60;44.00;;;15.80;98.30;;;;;;5045149;28;20048;-66
2023/09/09 05:49:00;;;;;;;48.00;44.30;;;15.80;98.30;;;;;;5040623;28;20045;-65
2023/09/09 05:51:26;;;;;;;45.17;41.57;;;15.90;98.20;;;;;;5045871;28;20048;-65
2023/09/09 05:53:51;;;;;;;45.47;41.67;;;16.00;98.20;;;;;;5029951;28;20068;-66
2023/09/09 05:56:17;;;;;;;54.80;50.30;;;16.00;98.20;;;;;;5048059;28;20055;-66
2023/09/09 05:58:43;;;;;;;80.23;72.13;;;16.10;98.30;;;;;;5045289;28;20049;-66
2023/09/09 06:01:09;;;;;;;64.13;58.23;;;16.20;98.30;;;;;;5045704;28;20144;-64
2023/09/09 06:03:35;;;;;;;71.27;64.73;;;16.30;98.30;;;;;;5049258;28;20048;-64
2023/09/09 06:06:02;;;;;;;51.43;46.50;;;16.40;98.30;;;;;;5044151;28;20068;-64
2023/09/09 06:08:28;;;;;;;68.90;62.50;;;16.50;98.30;;;;;;5051197;28;20707;-64
2023/09/09 06:10:54;;;;;;;67.30;61.03;;;16.60;98.40;;;;;;5049532;28;20340;-64
2023/09/09 06:13:20;;;;;;;73.20;67.03;;;16.70;98.30;;;;;;5050588;28;20280;-64
2023/09/09 06:15:46;;;;;;;88.90;81.87;;;16.80;98.30;;;;;;5049884;28;20045;-64
2023/09/09 06:18:11;;;;;;;52.23;47.27;;;16.90;98.40;;;;;;5044905;28;20049;-64
2023/09/09 06:20:37;;;;;;;67.30;61.70;;;17.00;98.30;;;;;;5020238;28;20093;-65
2023/09/09 06:23:03;;;;;;;58.03;53.13;;;17.10;98.10;;;;;;5045470;28;20048;-64
2023/09/09 06:25:29;;;;;;;54.17;49.87;;;17.20;98.20;;;;;;5042030;28;20156;-64
2023/09/09 06:27:55;;;;;;;75.70;70.10;;;17.30;98.00;;;;;;5046864;28;20048;-67
2023/09/09 06:30:20;;;;;;;57.27;52.23;;;17.40;97.90;;;;;;5026460;28;20292;-64
2023/09/09 06:32:46;;;;;;;54.80;50.10;;;17.50;97.60;;;;;;5046053;28;20134;-67
2023/09/09 06:35:12;;;;;;;83.73;77.63;;;17.60;97.60;;;;;;5047576;28;20045;-64
2023/09/09 06:37:38;;;;;;;59.43;54.70;;;17.80;97.40;;;;;;5025360;28;20044;-64
2023/09/09 06:40:04;;;;;;;71.27;65.97;;;17.90;97.30;;;;;;5039670;28;20535;-65
2023/09/09 06:42:30;;;;;;;58.83;54.23;;;18.00;97.20;;;;;;5051595;28;20295;-65
2023/09/09 06:44:56;;;;;;;89.83;83.47;;;18.10;97.20;;;;;;5042188;28;20620;-65
2023/09/09 06:47:21;;;;;;;73.63;68.30;;;18.20;97.10;;;;;;5041026;28;20310;-65
2023/09/09 06:49:48;;;;;;;91.07;84.43;;;18.30;97.10;;;;;;5047098;28;20040;-65
2023/09/09 06:52:14;;;;;;;60.77;55.87;;;18.40;96.90;;;;;;5038353;28;20045;-65
2023/09/09 06:54:40;;;;;;;89.47;82.97;;;18.50;96.90;;;;;;5044558;28;20276;-65
2023/09/09 06:57:05;;;;;;;102.47;95.07;;;18.70;97.10;;;;;;5029793;28;20033;-65
2023/09/09 06:59:31;;;;;;;71.57;65.97;;;18.70;97.00;;;;;;5049567;28;20044;-65
2023/09/09 07:01:57;;;;;;;73.93;67.97;;;18.80;97.00;;;;;;5048825;28;20440;-65
2023/09/09 07:04:23;;;;;;;61.37;56.13;;;19.00;96.90;;;;;;5047398;28;20295;-65
2023/09/09 07:06:48;;;;;;;91.47;84.60;;;19.10;96.80;;;;;;5040874;28;20045;-65
2023/09/09 07:09:14;;;;;;;101.77;94.73;;;19.20;96.80;;;;;;5028232;28;20064;-65
2023/09/09 07:11:41;;;;;;;97.43;90.23;;;19.30;97.00;;;;;;5048536;28;20025;-65
2023/09/09 07:14:07;;;;;;;116.67;108.53;;;19.40;96.90;;;;;;5045423;28;20047;-65
2023/09/09 07:16:34;;;;;;;106.27;98.73;;;19.40;97.10;;;;;;5048383;28;20496;-65
2023/09/09 07:19:00;;;;;;;138.27;128.50;;;19.50;97.30;;;;;;5037461;28;20045;-65
2023/09/09 07:21:26;;;;;;;122.50;113.27;;;19.50;97.30;;;;;;5043555;28;20079;-65
2023/09/09 07:23:51;;;;;;;102.17;93.27;;;19.60;97.10;;;;;;5031825;28;20041;-65
2023/09/09 07:26:18;;;;;;;114.80;103.27;;;19.70;97.10;;;;;;5048052;28;20174;-65
2023/09/09 07:28:43;;;;;;;116.37;104.47;;;19.80;97.40;;;;;;5033743;28;20139;-66
2023/09/09 07:31:09;;;;;;;118.00;106.13;;;20.00;97.00;;;;;;5026157;28;20068;-65
2023/09/09 07:33:36;;;;;;;124.37;111.53;;;20.10;96.80;;;;;;5048655;28;20118;-65
2023/09/09 07:36:01;;;;;;;131.63;118.27;;;20.20;96.90;;;;;;5020882;28;20033;-65
2023/09/09 07:38:27;;;;;;;109.77;97.97;;;20.40;96.50;;;;;;5048039;28;20048;-65
2023/09/09 07:41:01;;;;;;;109.03;97.70;;;20.50;95.90;;;;;;5028292;28;20817;-65
2023/09/09 07:43:27;;;;;;;104.80;93.47;;;20.60;95.70;;;;;;5043629;28;20048;-65
2023/09/09 07:45:53;;;;;;;103.83;91.03;;;20.70;95.30;;;;;;5027466;28;20473;-65
2023/09/09 07:48:19;;;;;;;98.20;87.60;;;20.80;95.10;;;;;;5031245;28;21000;-65
2023/09/09 07:50:52;;;;;;;109.53;97.77;;;20.90;94.60;;;;;;5040006;28;20048;-66
2023/09/09 07:53:18;;;;;;;99.30;87.73;;;21.10;94.50;;;;;;5032410;28;20116;-65
2023/09/09 07:55:50;;;;;;;98.27;87.67;;;21.20;94.00;;;;;;5047411;28;20037;-65
2023/09/09 07:58:17;;;;;;;98.87;88.10;;;21.30;93.70;;;;;;5047343;28;20041;-65
2023/09/09 08:00:44;;;;;;;102.80;92.03;;;21.50;93.20;;;;;;5053189;28;20055;-66
2023/09/09 08:03:11;;;;;;;97.10;86.73;;;21.60;92.40;;;;;;5058129;28;20074;-66
2023/09/09 08:05:38;;;;;;;105.70;94.57;;;21.70;91.50;;;;;;5048552;28;20040;-66
2023/09/09 08:08:06;;;;;;;107.93;96.73;;;21.70;91.00;;;;;;5049929;28;20525;-65
2023/09/09 08:10:31;;;;;;;97.03;86.63;;;21.80;90.80;;;;;;5048423;28;20051;-65
2023/09/09 08:12:57;;;;;;;98.47;87.97;;;21.90;90.40;;;;;;5049067;28;20497;-65
2023/09/09 08:15:23;;;;;;;91.23;81.30;;;22.10;90.20;;;;;;5056207;28;20413;-65
2023/09/09 08:17:49;;;;;;;92.87;82.77;;;22.20;89.80;;;;;;5038645;28;20048;-65
2023/09/09 08:20:14;;;;;;;91.63;81.83;;;22.30;89.30;;;;;;5043028;28;20080;-65
2023/09/09 08:22:40;;;;;;;91.57;82.10;;;22.40;89.30;;;;;;5042163;28;20050;-66
2023/09/09 08:25:06;;;;;;;87.50;77.93;;;22.50;88.80;;;;;;5048775;28;20033;-66
2023/09/09 08:27:32;;;;;;;89.37;80.13;;;22.60;88.20;;;;;;5040557;28;20050;-66
2023/09/09 08:29:58;;;;;;;70.17;62.50;;;22.70;88.20;;;;;;5048997;28;20098;-66
2023/09/09 08:32:24;;;;;;;72.23;64.37;;;22.80;87.90;;;;;;5047338;28;20235;-66
2023/09/09 08:34:54;;;;;;;71.47;63.37;;;22.90;86.90;;;;;;5048873;28;20033;-66
2023/09/09 08:37:20;;;;;;;63.87;56.70;;;23.10;86.40;;;;;;5050256;28;20416;-67
2023/09/09 08:39:46;;;;;;;63.20;56.60;;;23.10;84.50;;;;;;5044981;28;20041;-67
2023/09/09 08:42:23;;;;;;;57.73;49.93;;;23.20;84.80;;;;;;5047981;28;20041;-67
2023/09/09 08:45:02;;;;;;;57.93;52.00;;;23.30;84.20;;;;;;5049868;28;20057;-67
2023/09/09 08:47:35;;;;;;;53.50;47.80;;;23.50;83.10;;;;;;5043728;28;20123;-67
2023/09/09 08:50:04;;;;;;;46.43;41.67;;;23.60;82.50;;;;;;5047736;28;20040;-67
2023/09/09 08:52:30;;;;;;;51.87;46.47;;;23.70;81.50;;;;;;5049098;28;20032;-67
2023/09/09 08:54:56;;;;;;;55.80;50.03;;;23.80;80.70;;;;;;5031929;28;20044;-67
2023/09/09 08:57:23;;;;;;;50.90;45.80;;;23.90;79.70;;;;;;5053897;28;20106;-67
2023/09/09 08:59:49;;;;;;;49.17;43.97;;;24.00;79.50;;;;;;5019548;28;20123;-67
2023/09/09 09:02:15;;;;;;;52.13;46.80;;;24.10;79.30;;;;;;5031616;28;20413;-67
2023/09/09 09:04:42;;;;;;;52.17;46.77;;;24.20;78.70;;;;;;5044910;28;20053;-67
2023/09/09 09:07:08;;;;;;;52.97;47.27;;;24.30;77.50;;;;;;5046783;28;20041;-67
2023/09/09 09:09:34;;;;;;;49.80;44.73;;;24.50;77.70;;;;;;5045688;28;20037;-67
2023/09/09 09:12:03;;;;;;;51.10;45.90;;;24.50;77.50;;;;;;5043257;28;20040;-67
2023/09/09 09:14:29;;;;;;;46.03;41.23;;;24.60;77.50;;;;;;5042396;28;20072;-68
2023/09/09 09:16:55;;;;;;;49.57;44.67;;;24.70;77.00;;;;;;5046126;28;20032;-68
2023/09/09 09:19:30;;;;;;;49.23;44.13;;;24.80;75.90;;;;;;5046532;28;20039;-67
2023/09/09 09:21:57;;;;;;;48.97;44.13;;;24.90;74.60;;;;;;5048719;28;20543;-67
2023/09/09 09:24:27;;;;;;;44.60;40.00;;;24.90;75.50;;;;;;5049423;28;20108;-67
2023/09/09 09:26:54;;;;;;;44.40;40.00;;;25.00;74.20;;;;;;5049059;28;20041;-67
2023/09/09 09:29:20;;;;;;;43.83;39.30;;;25.10;74.10;;;;;;5027558;28;20041;-67
2023/09/09 09:31:55;;;;;;;43.37;38.97;;;25.10;73.70;;;;;;5026272;28;20037;-67
2023/09/09 09:34:31;;;;;;;;;;;25.20;74.10;;;;;;5042451;28;20588;-67
2023/09/09 09:36:57;;;;;;;38.90;34.90;;;25.30;70.60;;;;;;5049921;28;20277;-67
2023/09/09 09:39:22;;;;;;;39.03;35.13;;;25.40;72.40;;;;;;5040338;28;20136;-67
2023/09/09 09:41:48;;;;;;;43.00;38.53;;;25.40;72.90;;;;;;5042992;28;20137;-67
2023/09/09 09:44:20;;;;;;;32.80;29.50;;;25.50;72.30;;;;;;5040718;28;20548;-67
2023/09/09 09:47:04;;;;;;;30.37;27.43;;;25.50;70.20;;;;;;5037202;28;20044;-67
2023/09/09 09:49:37;;;;;;;33.07;29.90;;;25.50;68.30;;;;;;5043636;28;20389;-67
2023/09/09 09:52:04;;;;;;;33.63;30.43;;;25.50;69.70;;;;;;5051743;28;20040;-67
2023/09/09 09:54:33;;;;;;;35.27;31.87;;;25.60;68.20;;;;;;5038555;28;20048;-67
2023/09/09 09:57:04;;;;;;;40.40;36.93;;;25.60;68.40;;;;;;5020487;28;20072;-67
2023/09/09 09:59:39;;;;;;;30.57;27.87;;;25.60;67.20;;;;;;5039616;28;20049;-67
2023/09/09 10:02:05;;;;;;;29.47;26.67;;;25.70;67.70;;;;;;5036801;28;20110;-67
2023/09/09 10:04:40;;;;;;;47.93;44.00;;;25.80;67.00;;;;;;5037344;28;20041;-67
2023/09/09 10:07:13;;;;;;;34.10;30.87;;;25.90;67.20;;;;;;5052577;28;20104;-67
2023/09/09 10:09:59;;;;;;;34.37;31.03;;;26.00;67.00;;;;;;5043886;28;20067;-67
2023/09/09 10:12:45;;;;;;;54.90;50.73;;;26.10;66.50;;;;;;5042862;28;20045;-67
2023/09/09 10:15:12;;;;;;;37.00;33.53;;;26.20;65.10;;;;;;5032823;28;20045;-66
2023/09/09 10:17:39;;;;;;;37.07;33.57;;;26.20;65.10;;;;;;5075582;28;20049;-67
2023/09/09 10:20:06;;;;;;;40.57;37.10;;;26.30;65.90;;;;;;5038309;28;20057;-67
2023/09/09 10:22:33;;;;;;;32.23;29.07;;;26.40;66.00;;;;;;5045337;28;20128;-67
2023/09/09 10:25:03;;;;;;;37.70;34.40;;;26.50;66.00;;;;;;5045583;28;20044;-67
2023/09/09 10:27:29;;;;;;;35.30;31.60;;;26.50;65.90;;;;;;5012113;28;20608;-67
2023/09/09 10:29:57;;;;;;;39.63;36.03;;;26.60;66.40;;;;;;5030512;28;20132;-67
2023/09/09 10:32:25;;;;;;;39.03;35.53;;;26.80;66.30;;;;;;5043191;28;20046;-67
2023/09/09 10:34:53;;;;;;;37.87;34.77;;;26.90;65.20;;;;;;5026202;28;20796;-68
2023/09/09 10:37:19;;;;;;;38.87;35.73;;;26.90;64.40;;;;;;5021425;28;20049;-68
2023/09/09 10:39:49;;;;;;;67.23;62.33;;;26.90;64.80;;;;;;5033869;28;20044;-68
2023/09/09 10:42:16;;;;;;;30.40;27.80;;;26.90;62.10;;;;;;5043024;28;20048;-68
2023/09/09 10:44:49;;;;;;;27.40;25.00;;;26.90;63.40;;;;;;5045393;28;20171;-67
2023/09/09 10:47:19;;;;;;;27.47;24.90;;;26.90;63.10;;;;;;5044313;28;20083;-67
2023/09/09 10:49:45;;;;;;;29.43;27.03;;;26.90;62.80;;;;;;5045602;28;20048;-68
2023/09/09 10:52:31;;;;;;;33.40;30.70;;;26.90;63.50;;;;;;5024245;28;20034;-69
2023/09/09 10:55:11;;;;;;;35.03;32.03;;;27.00;61.40;;;;;;5023349;28;20110;-68
2023/09/09 10:57:36;;;;;;;33.17;30.17;;;27.00;62.60;;;;;;5067218;28;20497;-69
2023/09/09 11:00:06;;;;;;;51.20;47.37;;;27.10;63.30;;;;;;5043846;28;20106;-68
2023/09/09 11:02:46;;;;;;;41.30;38.23;;;27.10;61.90;;;;;;5058920;28;20037;-68
2023/09/09 11:05:13;;;;;;;27.33;25.03;;;27.20;60.70;;;;;;5048816;28;20134;-68
2023/09/09 11:07:40;;;;;;;26.77;24.47;;;27.10;62.10;;;;;;5050613;28;20052;-67
2023/09/09 11:10:06;;;;;;;33.23;30.87;;;27.10;61.60;;;;;;5029625;28;20068;-67
2023/09/09 11:12:32;;;;;;;36.67;34.03;;;27.10;61.30;;;;;;5047265;28;20076;-68
2023/09/09 11:15:08;;;;;;;31.00;28.70;;;27.20;61.60;;;;;;5048664;28;20466;-67
2023/09/09 11:17:42;;;;;;;41.90;39.20;;;27.30;61.00;;;;;;5080755;28;20047;-67
2023/09/09 11:20:12;;;;;;;33.53;31.23;;;27.40;60.70;;;;;;5046007;28;20517;-68
2023/09/09 11:22:42;;;;;;;41.67;39.07;;;27.50;60.20;;;;;;5060782;28;20041;-68
2023/09/09 11:25:08;;;;;;;21.93;20.20;;;27.50;58.30;;;;;;5047243;28;20087;-68
2023/09/09 11:27:34;;;;;;;26.67;24.63;;;27.50;58.60;;;;;;5043234;28;20433;-68
2023/09/09 11:30:00;;;;;;;31.13;28.90;;;27.50;59.10;;;;;;5024320;28;20079;-68
2023/09/09 11:32:30;;;;;;;27.30;25.20;;;27.50;59.00;;;;;;5042422;28;20045;-68
2023/09/09 11:34:56;;;;;;;44.13;41.17;;;27.60;59.70;;;;;;5044738;28;20033;-68
2023/09/09 11:37:26;;;;;;;26.03;24.10;;;27.60;59.50;;;;;;5038198;28;20488;-68
2023/09/09 11:39:55;;;;;;;27.27;25.33;;;27.70;59.80;;;;;;5029525;28;20044;-68
2023/09/09 11:42:22;;;;;;;29.93;27.63;;;27.80;59.10;;;;;;5027562;28;20497;-67
2023/09/09 11:44:47;;;;;;;28.37;26.33;;;27.80;59.30;;;;;;5046845;28;20500;-68
2023/09/09 11:47:15;;;;;;;21.17;19.63;;;27.80;58.30;;;;;;5036513;28;20033;-67
2023/09/09 11:49:48;;;;;;;21.70;19.83;;;27.80;59.30;;;;;;5039173;28;20049;-68
2023/09/09 11:52:17;;;;;;;36.50;34.00;;;27.80;58.10;;;;;;5043848;28;20103;-68
2023/09/09 11:54:46;;;;;;;20.97;19.57;;;27.70;57.80;;;;;;5025520;28;20037;-67
2023/09/09 11:57:11;;;;;;;33.77;31.67;;;27.70;58.90;;;;;;5039215;28;20060;-68
2023/09/09 11:59:48;;;;;;;25.27;23.47;;;27.80;58.90;;;;;;5023435;28;20045;-66
2023/09/09 12:02:24;;;;;;;44.83;41.77;;;27.80;57.70;;;;;;5041955;28;20056;-67
2023/09/09 12:04:57;;;;;;;21.30;19.83;;;27.80;58.40;;;;;;5068851;28;20072;-66
2023/09/09 12:07:27;;;;;;;22.73;21.03;;;27.90;58.50;;;;;;5047203;28;20505;-67
2023/09/09 12:09:53;;;;;;;20.07;18.67;;;27.90;58.60;;;;;;5043594;28;20512;-67
2023/09/09 12:12:19;;;;;;;18.50;17.00;;;27.90;58.80;;;;;;5028343;28;20043;-67
2023/09/09 12:14:47;;;;;;;20.30;18.90;;;28.00;59.00;;;;;;5045169;28;20411;-68
2023/09/09 12:17:12;;;;;;;23.90;22.20;;;28.20;58.10;;;;;;5027807;28;20128;-68
2023/09/09 12:19:38;;;;;;;24.13;22.50;;;28.30;57.90;;;;;;5043412;28;20136;-66
2023/09/09 12:22:04;;;;;;;18.90;17.57;;;28.30;57.50;;;;;;5047172;28;20090;-67
2023/09/09 12:24:40;;;;;;;19.80;18.23;;;28.40;57.70;;;;;;5047558;28;20041;-68
2023/09/09 12:27:05;;;;;;;19.93;18.53;;;28.40;56.60;;;;;;5046619;28;20079;-66